NEWS:


Yeovilton

ADDS - METARS form results

Output produced by METARs form (1711 UTC 18 August 2019)
found at http://www.aviationweather.gov/metar/data/
 
METAR text: EGDY 181650Z AUTO 26013KT 9999 BKN070/// 19/11 Q1007
Conditions at: EGDY (YEOVILTON (NAVY), GB) observed 1650 UTC 18 August 2019
Temperature: 19.0°C (66°F)
Dewpoint: 11.0°C (52°F) [RH = 60%]
Pressure (altimeter): 29.73 inches Hg (1007.0 mb)
Winds: from the W (260 degrees) at 15 MPH (13 knots; 6.7 m/s)
Visibility: 6 or more miles (10+ km)
Ceiling: 7000 feet AGL
Clouds: broken clouds at 7000 feet AGL
Weather: no significant weather observed at this time


Bournemouth

ADDS - METARS form results

Output produced by METARs form (1711 UTC 18 August 2019)
found at http://www.aviationweather.gov/metar/data/
 
METAR text: EGHH 181650Z 24018G29KT 9999 FEW025 SCT029 19/12 Q1008
Conditions at: EGHH (BOURNEMOUTH AIRP, GB) observed 1650 UTC 18 August 2019
Temperature: 19.0°C (66°F)
Dewpoint: 12.0°C (54°F) [RH = 64%]
Pressure (altimeter): 29.76 inches Hg (1008.0 mb)
Winds: from the WSW (240 degrees) at 21 MPH (18 knots; 9.3 m/s)
gusting to 33 MPH (29 knots; 14.9 m/s)
Visibility: 6 or more miles (10+ km)
Ceiling: at least 12,000 feet AGL
Clouds: few clouds at 2500 feet AGL
scattered clouds at 2900 feet AGL
Weather: no significant weather observed at this time

METAR text: EGHH 181620Z 25016G26KT 9999 FEW025 SCT029 19/12 Q1008
Conditions at: EGHH (BOURNEMOUTH AIRP, GB) observed 1620 UTC 18 August 2019
Temperature: 19.0°C (66°F)
Dewpoint: 12.0°C (54°F) [RH = 64%]
Pressure (altimeter): 29.76 inches Hg (1008.0 mb)
Winds: from the WSW (250 degrees) at 18 MPH (16 knots; 8.2 m/s)
gusting to 30 MPH (26 knots; 13.4 m/s)
Visibility: 6 or more miles (10+ km)
Ceiling: at least 12,000 feet AGL
Clouds: few clouds at 2500 feet AGL
scattered clouds at 2900 feet AGL
Weather: no significant weather observed at this time

Forecast for: EGHH (BOURNEMOUTH AIRP, GB)
Text: TAF EGHH 181659Z 1818/1903 24012KT 9999 SCT030
Forecast period: 1800 UTC 18 August 2019 to 0300 UTC 19 August 2019
Forecast type: FROM: standard forecast or significant change
Winds: from the WSW (240 degrees) at 14 MPH (12 knots; 6.2 m/s)
Visibility: 6 or more miles 10+ km)
Ceiling: at least 12,000 feet AGL
Clouds: scattered clouds at 3000 feet AGL
Weather: no significant weather forecast for this period
Text: PROB30
Forecast period: 1800 to 2000 UTC 18 August 2019
Forecast type: TEMPORARY: The following changes expected for less than half the time period
Winds: from the WSW (250 degrees) at 17 MPH (15 knots; 7.7 m/s)
gusting to 29 MPH (25 knots; 12.9 m/s)
Visibility: 5 miles (8 km)
Ceiling: unknown
Clouds: missing
Weather: SHRA  (rain showers)


Boscombe

ADDS - METARS form results

Output produced by METARs form (1711 UTC 18 August 2019)
found at http://www.aviationweather.gov/metar/data/
 
METAR text: EGDM 181650Z AUTO 24016KT 9999 FEW020/// BKN050/// 16/12 Q1007 RERA
Conditions at: EGDM (BOSCOMBE DOWN , GB) observed 1650 UTC 18 August 2019
Temperature: 16.0°C (61°F)
Dewpoint: 12.0°C (54°F) [RH = 77%]
Pressure (altimeter): 29.73 inches Hg (1007.0 mb)
Winds: from the WSW (240 degrees) at 18 MPH (16 knots; 8.2 m/s)
Visibility: 6 or more miles (10+ km)
Ceiling: 5000 feet AGL
Clouds: few clouds at 2000 feet AGL
broken clouds at 5000 feet AGL
Weather: no significant weather observed at this time


Bristol

ADDS - METARS form results

Output produced by METARs form (1711 UTC 18 August 2019)
found at http://www.aviationweather.gov/metar/data/
 
METAR text: EGGD 181650Z AUTO 26019KT 9999 BKN023 16/11 Q1007
Conditions at: EGGD (BRISTOL/LULSGATE, GB) observed 1650 UTC 18 August 2019
Temperature: 16.0°C (61°F)
Dewpoint: 11.0°C (52°F) [RH = 72%]
Pressure (altimeter): 29.73 inches Hg (1007.0 mb)
Winds: from the W (260 degrees) at 22 MPH (19 knots; 9.8 m/s)
Visibility: 6 or more miles (10+ km)
Ceiling: 2300 feet AGL
Clouds: broken clouds at 2300 feet AGL
Weather: no significant weather observed at this time

METAR text: EGGD 181620Z 25013KT 9999 VCSH FEW014 SCT044 15/12 Q1007
Conditions at: EGGD (BRISTOL/LULSGATE, GB) observed 1620 UTC 18 August 2019
Temperature: 15.0°C (59°F)
Dewpoint: 12.0°C (54°F) [RH = 82%]
Pressure (altimeter): 29.73 inches Hg (1007.0 mb)
Winds: from the WSW (250 degrees) at 15 MPH (13 knots; 6.7 m/s)
Visibility: 6 or more miles (10+ km)
Ceiling: at least 12,000 feet AGL
Clouds: few clouds at 1400 feet AGL
scattered clouds at 4400 feet AGL
Weather: VCSH  (showers in vicinity)

Forecast for: EGGD (BRISTOL/LULSGATE, GB)
Text: TAF EGGD 181705Z 1818/1918 24012KT 9999 FEW015 SCT025
Forecast period: 1800 UTC 18 August 2019 to 1800 UTC 19 August 2019
Forecast type: FROM: standard forecast or significant change
Winds: from the WSW (240 degrees) at 14 MPH (12 knots; 6.2 m/s)
Visibility: 6 or more miles 10+ km)
Ceiling: at least 12,000 feet AGL
Clouds: few clouds at 1500 feet AGL
scattered clouds at 2500 feet AGL
Weather: no significant weather forecast for this period
Text: PROB40
Forecast period: 1800 UTC 18 August 2019 to 0000 UTC 19 August 2019
Forecast type: TEMPORARY: The following changes expected for less than half the time period
Winds: from the WSW (250 degrees) at 17 MPH (15 knots; 7.7 m/s)
gusting to 29 MPH (25 knots; 12.9 m/s)
Visibility: 4 miles (7 km)
Ceiling: 1400 feet AGL
Clouds: broken clouds at 1400 feet AGL
Weather: SHRA  (rain showers)
Text: TEMPO 1818/1824 25015G25KT 7000 SHRA BKN014
Forecast period: 0000 to 1000 UTC 19 August 2019
Forecast type: TEMPORARY: The following changes expected for less than half the time period
Visibility: 4 miles (6 km)
Ceiling: 1200 feet AGL
Clouds: broken clouds at 1200 feet AGL
Weather: SHRA  (rain showers)
Text: TEMPO 1900/1910 6000 SHRA BKN012
Forecast period: 0000 to 1000 UTC 19 August 2019
Forecast type: TEMPORARY: The following changes expected for less than half the time period
Winds: from the SW (230 degrees) at 17 MPH (15 knots; 7.7 m/s)
gusting to 29 MPH (25 knots; 12.9 m/s)
Visibility: 2.49 miles (4.01 km)
Ceiling: 800 feet AGL
Clouds: broken clouds at 800 feet AGL
Weather: +SHRA  (heavy rain showers)
Text: PROB30
Forecast period: 1000 to 1800 UTC 19 August 2019
Forecast type: TEMPORARY: The following changes expected for less than half the time period
Winds: from the W (270 degrees) at 17 MPH (15 knots; 7.7 m/s)
gusting to 31 MPH (27 knots; 13.9 m/s)
Visibility: 5 miles (8 km)
Ceiling: unknown
Clouds: missing
Weather: SHRA  (rain showers)






Experience Flights